createdAt,value
2022-08-26T09:01:42.111Z,99.90
2022-08-26T09:09:37.503Z,99.90
2022-08-26T09:12:10.414Z,99.90
2022-08-26T09:32:42.937Z,99.90
2022-08-26T09:43:12.114Z,96.30
2022-08-26T09:45:44.558Z,93.10
2022-08-26T09:48:29.985Z,94.10
2022-08-26T09:51:00.885Z,92.60
2022-08-26T09:53:31.357Z,90.70
2022-08-26T09:56:17.997Z,91.90
2022-08-26T09:58:48.300Z,93.50
2022-08-26T10:01:26.542Z,93.90
2022-08-26T10:04:07.332Z,94.70
2022-08-26T10:06:39.949Z,95.90
2022-08-26T10:09:12.284Z,93.80
2022-08-26T10:11:44.896Z,93.90
2022-08-26T10:14:22.060Z,94.70
2022-08-26T10:16:56.485Z,94.60
2022-08-26T10:19:55.895Z,91.90
2022-08-26T10:22:22.093Z,92.80
2022-08-26T10:24:55.250Z,91.60
2022-08-26T10:27:28.641Z,91.70
2022-08-26T10:30:03.270Z,89.40
2022-08-26T10:32:37.355Z,90.00
2022-08-26T10:35:14.776Z,87.60
2022-08-26T10:37:48.039Z,88.60
2022-08-26T10:40:23.844Z,90.60
2022-08-26T10:42:58.261Z,87.20
2022-08-26T10:45:30.138Z,84.10
2022-08-26T10:48:04.094Z,89.60
2022-08-26T10:50:37.309Z,91.70
2022-08-26T10:53:14.974Z,84.30
2022-08-26T10:55:52.510Z,80.70
2022-08-26T10:58:40.122Z,84.50
2022-08-26T11:01:38.900Z,78.90
2022-08-26T11:04:31.165Z,83.90
2022-08-26T11:07:44.092Z,82.30
2022-08-26T11:10:49.943Z,77.60
2022-08-26T11:13:18.393Z,76.10
2022-08-26T11:16:11.206Z,74.40
2022-08-26T11:18:45.271Z,76.60
2022-08-26T11:21:45.266Z,73.80
2022-08-26T11:24:45.136Z,75.10
2022-08-26T11:28:02.391Z,74.70
2022-08-26T11:30:55.485Z,76.40
2022-08-26T11:34:01.119Z,71.40
2022-08-26T11:36:45.547Z,70.80
2022-08-26T11:39:24.317Z,71.20
2022-08-26T11:41:55.624Z,70.10
2022-08-26T11:44:31.489Z,63.90
2022-08-26T11:47:03.049Z,66.30
2022-08-26T11:49:34.621Z,63.30
2022-08-26T11:52:11.438Z,62.30
2022-08-26T11:54:41.890Z,62.00
2022-08-26T11:57:14.543Z,57.60
2022-08-26T11:59:44.275Z,59.20
2022-08-26T12:02:22.007Z,59.70
2022-08-26T12:04:56.579Z,60.40
2022-08-26T12:07:31.042Z,63.50
2022-08-26T12:10:02.270Z,65.10
2022-08-26T12:12:36.727Z,65.60
2022-08-26T12:15:16.177Z,65.30
2022-08-26T12:17:47.155Z,64.70
2022-08-26T12:20:46.036Z,67.90
2022-08-26T12:23:26.062Z,69.80
2022-08-26T12:26:04.110Z,70.50
2022-08-26T12:28:33.133Z,74.50
2022-08-26T12:31:06.366Z,77.80
2022-08-26T12:33:36.905Z,79.10
2022-08-26T12:36:06.185Z,78.70
2022-08-26T12:38:40.659Z,79.20
2022-08-26T12:41:09.100Z,77.90
2022-08-26T12:43:40.598Z,73.50
2022-08-26T12:46:12.187Z,72.00
2022-08-26T12:48:44.777Z,71.40
2022-08-26T12:51:24.312Z,69.10
2022-08-26T12:53:53.693Z,65.30
2022-08-26T12:56:33.844Z,64.60
2022-08-26T12:59:13.472Z,65.10
2022-08-26T13:01:55.382Z,64.10
2022-08-26T13:04:39.993Z,64.30
2022-08-26T13:07:15.927Z,61.30
2022-08-26T13:09:44.072Z,61.30
2022-08-26T13:12:12.671Z,60.10
2022-08-26T13:14:41.031Z,57.30
2022-08-26T13:17:10.618Z,58.10
2022-08-26T13:19:39.242Z,56.20
2022-08-26T13:22:07.630Z,55.40
2022-08-26T13:24:38.406Z,52.50
2022-08-26T13:27:08.007Z,53.50
2022-08-26T13:29:37.386Z,55.30
2022-08-26T13:32:08.794Z,57.20
2022-08-26T13:34:41.105Z,57.40
2022-08-26T13:37:12.517Z,61.50
2022-08-26T13:39:41.958Z,61.50
2022-08-26T13:42:10.388Z,59.80
2022-08-26T13:44:39.121Z,61.60
2022-08-26T13:47:09.377Z,60.70
2022-08-26T13:49:37.549Z,62.30
2022-08-26T13:52:10.624Z,61.60
2022-08-26T13:54:45.090Z,59.70
2022-08-26T13:57:15.319Z,59.30
2022-08-26T13:59:46.159Z,58.90
2022-08-26T14:02:14.342Z,57.00
2022-08-26T14:04:42.966Z,56.40
2022-08-26T14:07:15.446Z,55.10
2022-08-26T14:09:43.775Z,53.50
2022-08-26T14:12:11.905Z,53.60
2022-08-26T14:14:40.068Z,52.30
2022-08-26T14:17:08.445Z,52.90
2022-08-26T14:19:36.873Z,53.30
2022-08-26T14:22:05.684Z,52.50
2022-08-26T14:24:35.148Z,53.80
2022-08-26T14:27:03.273Z,52.50
2022-08-26T14:29:31.490Z,52.10
2022-08-26T14:32:02.490Z,51.80
2022-08-26T14:34:30.669Z,51.70
2022-08-26T14:36:58.794Z,52.10
2022-08-26T14:39:38.069Z,51.90
2022-08-26T14:42:06.440Z,51.90
2022-08-26T14:44:35.230Z,51.90
2022-08-26T14:47:06.017Z,51.70
2022-08-26T14:49:34.169Z,51.40
2022-08-26T14:52:02.699Z,50.40
2022-08-26T14:54:29.940Z,52.70
2022-08-26T14:57:03.442Z,52.30
2022-08-26T14:59:33.562Z,52.80
2022-08-26T15:02:02.384Z,53.30
2022-08-26T15:04:30.695Z,52.70
2022-08-26T15:07:00.618Z,52.90
2022-08-26T15:09:30.151Z,52.10
2022-08-26T15:11:59.678Z,52.70
2022-08-26T15:14:32.669Z,52.30
2022-08-26T15:17:01.386Z,52.30
2022-08-26T15:19:30.060Z,53.70
2022-08-26T15:21:58.161Z,51.60
2022-08-26T15:24:28.816Z,52.20
2022-08-26T15:26:57.365Z,50.90
2022-08-26T15:29:26.852Z,52.70
2022-08-26T15:31:55.277Z,51.60
2022-08-26T15:34:25.706Z,52.80
2022-08-26T15:36:53.810Z,51.40
2022-08-26T15:39:22.469Z,52.20
2022-08-26T15:41:50.954Z,51.90
2022-08-26T15:44:19.634Z,54.00
2022-08-26T15:46:54.263Z,55.10
2022-08-26T15:49:24.731Z,55.10
2022-08-26T15:51:52.875Z,54.50
2022-08-26T15:54:23.299Z,53.10
2022-08-26T15:56:52.405Z,52.10
2022-08-26T15:59:22.169Z,52.10
2022-08-26T16:01:52.659Z,51.20
2022-08-26T16:04:21.141Z,52.20
2022-08-26T16:06:52.123Z,51.40
2022-08-26T16:09:21.356Z,52.40
2022-08-26T16:11:50.488Z,55.80
2022-08-26T16:14:18.690Z,57.70
2022-08-26T16:16:47.114Z,58.50
2022-08-26T16:19:16.632Z,60.00
2022-08-26T16:21:45.773Z,60.10
2022-08-26T16:24:14.146Z,59.50
2022-08-26T16:26:44.064Z,59.20
2022-08-26T16:29:14.493Z,60.40
2022-08-26T16:31:43.309Z,61.50
2022-08-26T16:34:11.661Z,63.30
2022-08-26T16:36:41.589Z,65.40
2022-08-26T16:39:10.565Z,65.60
2022-08-26T16:41:38.992Z,64.80
2022-08-26T16:44:08.683Z,62.40
2022-08-26T16:46:37.371Z,62.60
2022-08-26T16:49:05.663Z,63.60
2022-08-26T16:51:37.646Z,64.30
2022-08-26T16:54:09.129Z,65.20
2022-08-26T16:56:37.966Z,66.40
2022-08-26T16:59:08.030Z,68.00
2022-08-26T17:01:36.251Z,70.00
2022-08-26T17:04:05.015Z,71.20
2022-08-26T17:06:33.597Z,72.90
2022-08-26T17:09:01.726Z,74.70
2022-08-26T17:11:31.453Z,75.90
2022-08-26T17:14:00.127Z,78.20
2022-08-26T17:16:28.721Z,79.90
2022-08-26T17:18:57.584Z,82.80
2022-08-26T17:21:26.644Z,86.50
2022-08-26T17:23:56.244Z,90.40
2022-08-26T17:26:24.705Z,92.50
2022-08-26T17:28:54.856Z,94.00
2022-08-26T17:46:23.970Z,94.40
2022-08-26T17:48:52.374Z,92.80
2022-08-26T17:51:20.938Z,93.50
2022-08-26T17:53:49.714Z,94.80
2022-08-26T17:56:20.581Z,97.00
2022-08-26T17:58:52.141Z,97.90
2022-08-26T18:01:22.503Z,99.40
2022-08-26T18:03:51.111Z,99.90
2022-08-26T18:06:20.693Z,99.90
2022-08-26T18:08:49.391Z,99.90
2022-08-26T18:11:19.904Z,99.90
2022-08-26T18:13:48.466Z,99.90
